createdAt,value
2023-02-14T00:00:49.198Z,48.03
2023-02-14T00:03:16.122Z,46.85
2023-02-14T00:05:43.170Z,50.00
2023-02-14T00:08:10.336Z,50.35
2023-02-14T00:10:37.365Z,43.20
2023-02-14T00:13:04.782Z,43.15
2023-02-14T00:15:31.691Z,40.67
2023-02-14T00:18:02.306Z,45.90
2023-02-14T00:20:29.688Z,47.03
2023-02-14T00:22:56.721Z,51.57
2023-02-14T00:25:23.664Z,52.17
2023-02-14T00:27:50.878Z,55.72
2023-02-14T00:30:17.928Z,52.30
2023-02-14T00:32:44.901Z,49.42
2023-02-14T00:35:12.080Z,53.67
2023-02-14T00:37:41.381Z,49.65
2023-02-14T00:40:09.642Z,44.22
2023-02-14T00:42:39.494Z,46.60
2023-02-14T00:45:06.792Z,43.65
2023-02-14T00:47:35.475Z,46.80
2023-02-14T00:50:05.071Z,46.20
2023-02-14T00:52:31.973Z,44.30
2023-02-14T00:54:59.015Z,46.30
2023-02-14T00:57:25.903Z,43.05
2023-02-14T00:59:52.814Z,44.93
2023-02-14T01:02:21.056Z,41.22
2023-02-14T01:04:48.036Z,47.10
2023-02-14T01:07:14.957Z,51.60
2023-02-14T01:09:42.412Z,45.13
2023-02-14T01:12:09.358Z,41.00
2023-02-14T01:14:36.323Z,47.72
2023-02-14T01:17:03.115Z,49.78
2023-02-14T01:19:30.029Z,51.90
2023-02-14T01:21:56.920Z,49.72
2023-02-14T01:24:25.097Z,52.83
2023-02-14T01:26:51.976Z,49.53
2023-02-14T01:29:18.848Z,51.55
2023-02-14T01:31:48.337Z,54.35
2023-02-14T01:34:15.403Z,52.13
2023-02-14T01:36:42.335Z,45.07
2023-02-14T01:39:14.173Z,47.28
2023-02-14T01:41:43.081Z,44.40
2023-02-14T01:44:16.885Z,41.53
2023-02-14T01:46:47.046Z,36.92
2023-02-14T01:49:18.500Z,46.73
2023-02-14T01:51:52.247Z,41.28
2023-02-14T01:54:22.617Z,36.83
2023-02-14T01:56:53.610Z,37.55
2023-02-14T01:59:24.874Z,39.92
2023-02-14T02:01:53.511Z,45.90
2023-02-14T02:04:28.937Z,43.28
2023-02-14T02:07:02.829Z,36.28
2023-02-14T02:09:51.103Z,37.50
2023-02-14T02:12:18.292Z,35.55
2023-02-14T02:14:46.305Z,35.17
2023-02-14T02:17:38.016Z,34.63
2023-02-14T02:20:39.975Z,39.08
2023-02-14T02:23:16.876Z,35.00
2023-02-14T02:26:08.738Z,35.33
2023-02-14T02:29:33.360Z,38.03
2023-02-14T02:32:32.202Z,36.28
2023-02-14T02:35:25.236Z,36.67
2023-02-14T02:38:16.270Z,37.20
2023-02-14T02:41:06.283Z,36.20
2023-02-14T02:43:45.276Z,36.53
2023-02-14T02:46:41.438Z,34.38
2023-02-14T02:49:49.329Z,38.72
2023-02-14T02:52:56.333Z,38.28
2023-02-14T02:56:03.437Z,39.70
2023-02-14T02:58:58.883Z,37.80
2023-02-14T03:01:34.303Z,33.90
2023-02-14T03:04:27.966Z,41.28
2023-02-14T03:06:56.171Z,36.53
2023-02-14T03:09:26.180Z,47.10
2023-02-14T03:12:33.514Z,39.50
2023-02-14T03:15:09.648Z,38.28
2023-02-14T03:18:29.797Z,41.95
2023-02-14T03:21:24.121Z,40.78
2023-02-14T03:24:01.859Z,43.22
2023-02-14T03:26:39.643Z,36.50
2023-02-14T03:29:16.615Z,43.33
2023-02-14T03:32:01.096Z,45.03
2023-02-14T03:34:51.637Z,39.53
2023-02-14T03:37:28.687Z,39.92
2023-02-14T03:40:05.604Z,41.60
2023-02-14T03:42:51.681Z,40.35
2023-02-14T03:45:51.565Z,48.15
2023-02-14T03:48:22.154Z,48.08
2023-02-14T03:50:51.712Z,70.65
2023-02-14T03:53:25.538Z,77.33
2023-02-14T03:56:18.069Z,83.28
2023-02-14T03:58:54.020Z,123.03
2023-02-14T04:01:33.053Z,273.63
2023-02-14T04:04:02.012Z,336.73
2023-02-14T04:06:28.916Z,238.40
2023-02-14T04:08:55.950Z,201.52
2023-02-14T04:11:24.515Z,278.00
2023-02-14T04:13:51.698Z,310.17
2023-02-14T04:16:18.786Z,375.30
2023-02-14T04:19:04.629Z,322.43
2023-02-14T04:21:31.597Z,350.45
2023-02-14T04:23:58.521Z,232.75
2023-02-14T04:26:25.456Z,172.75
2023-02-14T04:28:52.465Z,213.40
2023-02-14T04:31:19.432Z,153.43
2023-02-14T04:33:48.496Z,140.98
2023-02-14T04:36:15.491Z,87.90
2023-02-14T04:38:42.607Z,116.13
2023-02-14T04:41:09.628Z,114.72
2023-02-14T04:43:36.664Z,66.43
2023-02-14T04:46:03.758Z,110.45
2023-02-14T04:48:30.640Z,150.25
2023-02-14T04:51:01.869Z,77.90
2023-02-14T04:53:29.065Z,113.07
2023-02-14T04:55:56.008Z,161.67
2023-02-14T04:58:23.007Z,106.50
2023-02-14T05:00:50.162Z,152.43
2023-02-14T05:03:17.392Z,141.57
2023-02-14T05:05:44.764Z,107.68
2023-02-14T05:08:11.638Z,53.33
2023-02-14T05:10:41.069Z,64.95
2023-02-14T05:13:08.175Z,74.47
2023-02-14T05:15:38.337Z,91.28
2023-02-14T05:18:05.809Z,46.10
2023-02-14T05:20:32.815Z,96.40
2023-02-14T05:23:03.610Z,66.80
2023-02-14T05:25:31.385Z,42.97
2023-02-14T05:27:58.710Z,48.30
2023-02-14T05:30:28.057Z,52.03
2023-02-14T05:32:55.182Z,33.63
2023-02-14T05:35:22.239Z,39.78
2023-02-14T05:37:49.213Z,43.72
2023-02-14T05:40:16.416Z,44.88
2023-02-14T05:42:43.912Z,33.72
2023-02-14T05:45:11.848Z,38.63
2023-02-14T05:47:39.394Z,34.42
2023-02-14T05:50:07.424Z,40.78
2023-02-14T05:52:34.816Z,42.95
2023-02-14T05:55:02.088Z,43.70
2023-02-14T05:57:29.115Z,41.83
2023-02-14T05:59:56.316Z,40.95
2023-02-14T06:02:23.451Z,40.40
2023-02-14T06:04:51.055Z,36.47
2023-02-14T06:07:18.458Z,44.05
2023-02-14T06:09:45.435Z,43.53
2023-02-14T06:12:12.450Z,42.90
2023-02-14T06:14:41.382Z,37.45
2023-02-14T06:17:08.885Z,44.17
2023-02-14T06:19:36.180Z,45.55
2023-02-14T06:22:04.048Z,38.60
2023-02-14T06:24:31.149Z,39.60
2023-02-14T06:26:59.295Z,40.03
2023-02-14T06:29:26.595Z,44.88
2023-02-14T06:31:53.838Z,41.05
2023-02-14T06:34:20.894Z,41.23
2023-02-14T06:36:47.865Z,45.78
2023-02-14T06:39:14.932Z,46.13
2023-02-14T06:41:42.146Z,41.20
2023-02-14T06:44:10.458Z,39.22
2023-02-14T06:46:37.438Z,41.30
2023-02-14T06:49:04.712Z,42.47
2023-02-14T06:51:31.626Z,42.58
2023-02-14T06:53:58.491Z,38.25
2023-02-14T06:56:25.905Z,41.63
2023-02-14T06:58:53.002Z,44.10
2023-02-14T07:01:20.227Z,45.08
2023-02-14T07:03:47.245Z,45.42
2023-02-14T07:06:14.119Z,44.95
2023-02-14T07:08:42.314Z,41.17
2023-02-14T07:11:09.389Z,44.43
2023-02-14T07:13:36.407Z,43.50
2023-02-14T07:16:03.492Z,47.25
2023-02-14T07:18:30.457Z,49.05
2023-02-14T07:20:57.367Z,53.72
2023-02-14T07:23:24.413Z,54.87
2023-02-14T07:25:51.295Z,47.47
2023-02-14T07:28:18.303Z,42.90
2023-02-14T07:30:45.242Z,49.78
2023-02-14T07:33:12.362Z,50.35
2023-02-14T07:35:39.208Z,48.60
2023-02-14T07:38:06.271Z,50.65
2023-02-14T07:40:33.210Z,46.88
2023-02-14T07:43:01.000Z,51.33
2023-02-14T07:45:28.137Z,47.35
2023-02-14T07:47:55.603Z,50.07
2023-02-14T07:50:23.661Z,49.53
2023-02-14T07:52:50.912Z,52.47
2023-02-14T07:55:19.343Z,48.60
2023-02-14T07:57:48.863Z,54.78
2023-02-14T08:00:16.129Z,53.53
2023-02-14T08:02:43.477Z,51.83
2023-02-14T08:05:10.688Z,53.17
2023-02-14T08:07:37.718Z,58.67
2023-02-14T08:10:05.100Z,46.33
2023-02-14T08:12:50.532Z,54.60
2023-02-14T08:15:35.928Z,50.33
2023-02-14T08:18:02.835Z,56.28
2023-02-14T08:20:29.884Z,58.25
2023-02-14T08:22:56.938Z,57.53
2023-02-14T08:25:23.881Z,60.57
2023-02-14T08:27:50.728Z,56.63
2023-02-14T08:30:18.351Z,57.38
2023-02-14T08:32:45.695Z,69.22
2023-02-14T08:35:12.509Z,66.50
2023-02-14T08:37:39.350Z,65.87
2023-02-14T08:40:07.287Z,64.75
2023-02-14T08:42:34.115Z,54.13
2023-02-14T08:45:04.340Z,60.83
2023-02-14T08:47:35.899Z,55.33
2023-02-14T08:50:03.571Z,57.97
2023-02-14T08:52:30.346Z,60.65
2023-02-14T08:54:57.203Z,53.28
2023-02-14T08:57:24.322Z,58.85
2023-02-14T08:59:51.382Z,54.15
2023-02-14T09:02:18.299Z,54.63
2023-02-14T09:04:45.530Z,53.75
2023-02-14T09:07:13.215Z,64.68
2023-02-14T09:09:40.112Z,57.38
2023-02-14T09:12:08.947Z,56.92
2023-02-14T09:14:41.821Z,56.23
2023-02-14T09:17:08.851Z,55.13
2023-02-14T09:19:37.063Z,56.25
2023-02-14T09:22:05.592Z,54.10
2023-02-14T09:24:33.158Z,52.30
2023-02-14T09:27:00.353Z,57.13
2023-02-14T09:29:29.222Z,55.50
2023-02-14T09:31:58.328Z,53.08
2023-02-14T09:34:45.136Z,51.60
2023-02-14T09:37:13.448Z,50.83
2023-02-14T09:39:40.378Z,56.17
2023-02-14T09:42:28.182Z,53.55
2023-02-14T09:45:17.245Z,54.55
2023-02-14T09:47:54.054Z,53.92
2023-02-14T09:50:53.349Z,54.55
2023-02-14T09:53:36.928Z,47.70
2023-02-14T09:56:25.685Z,49.65
2023-02-14T09:59:29.209Z,53.53
2023-02-14T10:02:12.319Z,47.95
2023-02-14T10:04:50.151Z,51.78
2023-02-14T10:07:19.936Z,50.53
2023-02-14T10:10:11.212Z,51.75
2023-02-14T10:12:52.089Z,46.92
2023-02-14T10:15:36.782Z,48.08
2023-02-14T10:18:29.867Z,49.13
2023-02-14T10:21:01.948Z,47.57
2023-02-14T10:23:40.920Z,44.58
2023-02-14T10:26:16.104Z,44.15
2023-02-14T10:28:46.299Z,47.83
2023-02-14T10:32:00.734Z,49.90
2023-02-14T10:34:50.817Z,45.27
2023-02-14T10:37:29.648Z,47.70
2023-02-14T10:40:20.463Z,44.17
2023-02-14T10:43:15.431Z,46.22
2023-02-14T10:45:50.575Z,46.30
2023-02-14T10:48:23.514Z,43.53
2023-02-14T10:51:01.903Z,45.38
2023-02-14T10:53:46.569Z,46.03
2023-02-14T10:56:14.004Z,43.97
2023-02-14T10:58:42.509Z,48.40
2023-02-14T11:01:15.062Z,46.17
2023-02-14T11:04:06.672Z,45.65
2023-02-14T11:06:34.225Z,49.35
2023-02-14T11:09:01.181Z,43.75
2023-02-14T11:11:43.459Z,46.08
2023-02-14T11:14:35.883Z,46.50
2023-02-14T11:17:31.578Z,44.25
2023-02-14T11:20:07.261Z,42.10
2023-02-14T11:22:37.002Z,49.90
2023-02-14T11:25:07.582Z,49.03
2023-02-14T11:27:37.818Z,47.63
2023-02-14T11:30:18.621Z,41.97
2023-02-14T11:32:56.082Z,45.35
2023-02-14T11:35:27.575Z,44.95
2023-02-14T11:37:57.346Z,44.13
2023-02-14T11:40:33.723Z,41.67
2023-02-14T11:43:14.399Z,39.25
2023-02-14T11:45:49.880Z,44.75
2023-02-14T11:48:37.663Z,48.75
2023-02-14T11:51:14.345Z,43.28
2023-02-14T11:53:56.097Z,38.53
2023-02-14T11:56:24.583Z,44.10
2023-02-14T11:58:57.010Z,40.95
2023-02-14T12:01:28.000Z,46.17
2023-02-14T12:03:58.129Z,40.60
2023-02-14T12:06:30.459Z,43.67
2023-02-14T12:09:22.169Z,41.30
2023-02-14T12:12:00.776Z,43.92
2023-02-14T12:14:33.154Z,47.38
2023-02-14T12:17:05.454Z,43.17
2023-02-14T12:19:54.108Z,41.30
2023-02-14T12:22:36.917Z,46.60
2023-02-14T12:25:15.820Z,44.60
2023-02-14T12:27:54.108Z,47.38
2023-02-14T12:30:23.806Z,44.13
2023-02-14T12:32:53.618Z,46.43
2023-02-14T12:35:38.469Z,43.72
2023-02-14T12:38:50.379Z,45.22
2023-02-14T12:41:26.564Z,43.50
2023-02-14T12:43:57.670Z,42.58
2023-02-14T12:46:49.211Z,47.37
2023-02-14T12:49:44.198Z,48.92
2023-02-14T12:52:19.881Z,47.65
2023-02-14T12:55:15.452Z,50.65
2023-02-14T12:57:47.836Z,49.92
2023-02-14T13:00:27.986Z,46.47
2023-02-14T13:03:04.275Z,51.35
2023-02-14T13:05:54.705Z,46.00
2023-02-14T13:08:35.370Z,51.80
2023-02-14T13:11:08.040Z,46.33
2023-02-14T13:13:40.672Z,43.07
2023-02-14T13:16:19.334Z,47.00
2023-02-14T13:19:06.509Z,49.35
2023-02-14T13:21:37.467Z,46.95
2023-02-14T13:24:16.937Z,48.05
2023-02-14T13:26:49.100Z,46.97
2023-02-14T13:29:21.544Z,49.72
2023-02-14T13:31:49.854Z,43.50
2023-02-14T13:34:41.918Z,46.50
2023-02-14T13:37:12.629Z,49.42
2023-02-14T13:39:55.418Z,44.63
2023-02-14T13:42:47.674Z,44.40
2023-02-14T13:45:32.924Z,42.55
2023-02-14T13:48:18.410Z,49.55
2023-02-14T13:51:04.783Z,45.88
2023-02-14T13:53:35.418Z,43.10
2023-02-14T13:56:27.956Z,46.28
2023-02-14T13:59:00.663Z,44.63
2023-02-14T14:01:39.381Z,49.75
2023-02-14T14:04:31.978Z,42.00
2023-02-14T14:07:04.930Z,46.70
2023-02-14T14:09:50.155Z,46.45
2023-02-14T14:12:29.573Z,46.75
2023-02-14T14:15:05.784Z,46.50
2023-02-14T14:17:34.609Z,45.40
2023-02-14T14:20:04.781Z,45.87
2023-02-14T14:22:31.733Z,40.30
2023-02-14T14:25:01.716Z,47.58
2023-02-14T14:27:42.993Z,47.78
2023-02-14T14:30:21.186Z,45.15
2023-02-14T14:32:48.524Z,46.67
2023-02-14T14:35:15.815Z,43.92
2023-02-14T14:37:48.444Z,48.95
2023-02-14T14:40:31.511Z,45.58
2023-02-14T14:43:06.099Z,49.63
2023-02-14T14:45:33.188Z,44.93
2023-02-14T14:48:08.339Z,43.90
2023-02-14T14:50:36.569Z,41.10
2023-02-14T14:53:35.684Z,50.03
2023-02-14T14:56:03.155Z,47.92
2023-02-14T14:58:32.717Z,43.90
2023-02-14T15:01:00.052Z,44.53
2023-02-14T15:03:28.808Z,43.50
2023-02-14T15:06:18.647Z,41.83
2023-02-14T15:08:48.553Z,47.70
2023-02-14T15:11:44.240Z,44.33
2023-02-14T15:14:16.972Z,48.63
2023-02-14T15:16:57.736Z,47.63
2023-02-14T15:19:37.179Z,42.40
2023-02-14T15:22:08.051Z,48.70
2023-02-14T15:24:38.386Z,47.83
2023-02-14T15:27:05.411Z,53.53
2023-02-14T15:29:33.949Z,46.00
2023-02-14T15:32:03.387Z,40.85
2023-02-14T15:34:32.945Z,43.83
2023-02-14T15:37:03.780Z,47.83
2023-02-14T15:39:43.926Z,50.63
2023-02-14T15:42:29.470Z,45.25
2023-02-14T15:45:27.858Z,42.65
2023-02-14T15:48:04.049Z,46.90
2023-02-14T15:50:34.272Z,47.67
2023-02-14T15:53:07.065Z,45.53
2023-02-14T15:55:35.959Z,48.30
2023-02-14T15:58:22.764Z,42.90
2023-02-14T16:00:51.950Z,43.13
2023-02-14T16:03:43.763Z,42.90
2023-02-14T16:06:30.411Z,49.95
2023-02-14T16:08:58.375Z,48.83
2023-02-14T16:11:28.059Z,45.33
2023-02-14T16:13:55.023Z,47.40
2023-02-14T16:16:21.962Z,45.90
2023-02-14T16:18:56.495Z,47.25
2023-02-14T16:21:28.465Z,47.65
2023-02-14T16:24:07.298Z,45.50
2023-02-14T16:26:36.176Z,44.58
2023-02-14T16:29:04.045Z,49.43
2023-02-14T16:31:32.015Z,47.15
2023-02-14T16:33:59.119Z,50.63
2023-02-14T16:36:31.804Z,45.72
2023-02-14T19:11:02.910Z,64.50
2023-02-14T19:13:32.385Z,74.32
2023-02-14T19:16:00.410Z,67.33
2023-02-14T19:18:28.556Z,80.80
2023-02-14T19:20:55.951Z,73.28
2023-02-14T19:23:23.260Z,77.53
2023-02-14T19:25:50.968Z,75.47
2023-02-14T19:28:18.410Z,72.30
2023-02-14T19:30:45.696Z,70.30
2023-02-14T19:33:13.114Z,68.97
2023-02-14T19:35:40.360Z,72.72
2023-02-14T19:38:07.720Z,70.70
2023-02-14T19:40:35.193Z,66.77
2023-02-14T19:43:02.781Z,69.85
2023-02-14T19:45:38.250Z,71.40
2023-02-14T19:48:26.910Z,73.50
2023-02-14T19:51:01.143Z,77.35
2023-02-14T19:53:36.926Z,78.43
2023-02-14T19:56:04.714Z,78.50
2023-02-14T19:58:35.680Z,80.75
2023-02-14T20:01:06.331Z,82.95
2023-02-14T20:03:36.092Z,78.95
2023-02-14T20:06:04.480Z,77.60
2023-02-14T20:08:39.164Z,72.72
2023-02-14T20:11:16.027Z,74.53
2023-02-14T20:13:50.568Z,72.90
2023-02-14T20:16:22.586Z,73.30
2023-02-14T20:19:10.669Z,83.43
2023-02-14T20:21:43.183Z,72.00
2023-02-14T20:24:29.660Z,76.50
2023-02-14T20:27:08.545Z,75.53
2023-02-14T20:29:39.615Z,70.90
2023-02-14T20:32:25.836Z,76.40
2023-02-14T20:34:57.952Z,72.93
2023-02-14T20:37:39.906Z,67.18
2023-02-14T20:40:10.778Z,79.85
2023-02-14T20:42:39.974Z,71.75
2023-02-14T20:45:08.521Z,68.83
2023-02-14T20:47:39.443Z,71.13
2023-02-14T20:50:08.219Z,72.07
2023-02-14T20:52:41.148Z,75.78
2023-02-14T20:55:11.765Z,75.75
2023-02-14T20:57:43.912Z,71.77
2023-02-14T21:00:12.282Z,73.07
2023-02-14T21:02:44.791Z,85.80
2023-02-14T21:05:29.237Z,79.70
2023-02-14T21:07:57.468Z,74.28
2023-02-14T21:10:25.490Z,69.17
2023-02-14T21:13:04.902Z,73.90
2023-02-14T21:15:37.724Z,73.10
2023-02-14T21:18:05.775Z,75.38
2023-02-14T21:20:39.861Z,75.65
2023-02-14T21:23:07.822Z,74.20
2023-02-14T21:25:35.262Z,65.95
2023-02-14T21:28:02.432Z,72.55
2023-02-14T21:30:31.560Z,68.45
2023-02-14T21:32:59.464Z,70.00
2023-02-14T21:35:26.616Z,74.63
2023-02-14T21:37:53.673Z,76.80
2023-02-14T21:40:21.886Z,73.85
2023-02-14T21:42:50.124Z,73.45
2023-02-14T21:45:37.456Z,78.80
2023-02-14T21:48:23.326Z,77.47
2023-02-14T21:50:53.853Z,78.20
2023-02-14T21:53:26.920Z,74.65
2023-02-14T21:56:12.191Z,77.15
2023-02-14T21:58:40.437Z,71.43
2023-02-14T22:01:08.079Z,76.07
2023-02-14T22:03:35.000Z,76.03
2023-02-14T22:06:03.495Z,70.43
2023-02-14T22:08:37.971Z,76.10
2023-02-14T22:11:07.149Z,69.32
2023-02-14T22:13:34.866Z,71.67
2023-02-14T22:16:10.292Z,73.88
2023-02-14T22:18:38.108Z,68.75
2023-02-14T22:21:11.534Z,68.85
2023-02-14T22:23:38.871Z,69.30
2023-02-14T22:26:17.812Z,66.97
2023-02-14T22:28:47.230Z,65.15
2023-02-14T22:31:16.440Z,77.57
2023-02-14T22:33:43.719Z,74.72
2023-02-14T22:36:11.158Z,77.00
2023-02-14T22:38:38.993Z,75.27
2023-02-14T22:41:14.900Z,67.65
2023-02-14T22:43:42.264Z,71.22
2023-02-14T22:46:17.122Z,72.32
2023-02-14T22:48:44.593Z,73.13
2023-02-14T22:51:18.190Z,73.37
2023-02-14T22:53:45.429Z,77.47
2023-02-14T22:56:16.838Z,69.80
2023-02-14T22:58:44.368Z,76.55
2023-02-14T23:01:19.730Z,67.80
2023-02-14T23:03:47.838Z,74.10
2023-02-14T23:06:15.341Z,70.75
2023-02-14T23:08:44.386Z,74.95
2023-02-14T23:11:15.281Z,72.90
2023-02-14T23:14:01.069Z,69.82
2023-02-14T23:16:46.447Z,65.73
2023-02-14T23:19:40.247Z,70.55
2023-02-14T23:22:13.471Z,65.10
2023-02-14T23:24:40.474Z,71.60
2023-02-14T23:27:08.863Z,81.45
2023-02-14T23:29:36.545Z,75.60
2023-02-14T23:32:05.162Z,70.53
2023-02-14T23:34:35.013Z,66.75
2023-02-14T23:37:02.326Z,62.78
2023-02-14T23:39:32.625Z,73.75
2023-02-14T23:41:59.456Z,71.70
2023-02-14T23:44:27.934Z,64.82
2023-02-14T23:46:57.802Z,68.20
2023-02-14T23:49:25.866Z,77.15
2023-02-14T23:51:55.418Z,67.18
2023-02-14T23:54:23.700Z,66.80
2023-02-14T23:56:52.460Z,66.47
2023-02-14T23:59:20.893Z,69.07
